sensor_id;sensor_type;location;lat;lon;timestamp;pressure;altitude;pressure_sealevel;temperature;humidity
29385;BME280;16367;48.736;9.218;2023-05-02T00:01:51;58353.00;;;8.85;100.00
29385;BME280;16367;48.736;9.218;2023-05-02T00:03:55;57694.97;;;8.83;100.00
29385;BME280;16367;48.736;9.218;2023-05-02T00:05:59;57368.03;;;8.84;100.00
29385;BME280;16367;48.736;9.218;2023-05-02T00:08:02;57032.06;;;8.76;100.00
29385;BME280;16367;48.736;9.218;2023-05-02T00:10:07;55064.31;;;8.75;100.00
29385;BME280;16367;48.736;9.218;2023-05-02T00:12:10;51788.56;;;8.75;100.00
29385;BME280;16367;48.736;9.218;2023-05-02T00:14:13;51131.03;;;8.72;100.00
29385;BME280;16367;48.736;9.218;2023-05-02T00:16:16;51458.41;;;8.72;100.00
29385;BME280;16367;48.736;9.218;2023-05-02T00:18:19;51133.75;;;8.75;100.00
29385;BME280;16367;48.736;9.218;2023-05-02T00:20:22;48514.22;;;8.73;100.00
29385;BME280;16367;48.736;9.218;2023-05-02T00:22:25;50149.94;;;8.73;100.00
29385;BME280;16367;48.736;9.218;2023-05-02T00:24:28;51457.47;;;8.71;100.00
29385;BME280;16367;48.736;9.218;2023-05-02T00:26:32;50795.13;;;8.62;100.00
29385;BME280;16367;48.736;9.218;2023-05-02T00:28:35;49157.25;;;8.60;100.00
29385;BME280;16367;48.736;9.218;2023-05-02T00:30:41;46868.75;;;8.61;100.00
29385;BME280;16367;48.736;9.218;2023-05-02T00:32:44;43270.34;;;8.57;100.00
29385;BME280;16367;48.736;9.218;2023-05-02T00:34:47;41638.59;;;8.58;100.00
29385;BME280;16367;48.736;9.218;2023-05-02T00:36:49;38370.00;;;8.51;100.00
29385;BME280;16367;48.736;9.218;2023-05-02T00:38:52;38695.88;;;8.51;100.00
29385;BME280;16367;48.736;9.218;2023-05-02T00:40:55;38696.56;;;8.52;100.00
29385;BME280;16367;48.736;9.218;2023-05-02T00:42:59;39024.22;;;8.54;100.00
29385;BME280;16367;48.736;9.218;2023-05-02T00:45:02;36096.13;;;8.65;100.00
29385;BME280;16367;48.736;9.218;2023-05-02T00:47:07;30226.78;;;8.57;100.00
29385;BME280;16367;48.736;9.218;2023-05-02T00:49:10;29248.88;;;8.55;100.00
29385;BME280;16367;48.736;9.218;2023-05-02T00:51:13;30872.81;;;8.48;100.00
29385;BME280;16367;48.736;9.218;2023-05-02T00:53:15;32498.88;;;8.45;100.00
29385;BME280;16367;48.736;9.218;2023-05-02T00:55:18;35427.84;;;8.40;100.00
29385;BME280;16367;48.736;9.218;2023-05-02T00:57:21;36735.66;;;8.46;100.00
29385;BME280;16367;48.736;9.218;2023-05-02T00:59:27;33806.13;;;8.52;100.00
29385;BME280;16367;48.736;9.218;2023-05-02T01:01:35;30877.66;;;8.57;100.00
29385;BME280;16367;48.736;9.218;2023-05-02T01:03:48;26321.28;;;8.56;100.00
29385;BME280;16367;48.736;9.218;2023-05-02T01:06:00;23395.81;;;8.57;100.00
29385;BME280;16367;48.736;9.218;2023-05-02T01:08:12;19175.19;;;8.62;100.00
29385;BME280;16367;48.736;9.218;2023-05-02T01:10:25;6212.25;;;8.73;100.00
29385;BME280;16367;48.736;9.218;2023-05-02T01:12:33;3300.53;;;8.72;100.00
29385;BME280;16367;48.736;9.218;2023-05-02T01:14:42;4269.88;;;8.65;100.00
29385;BME280;16367;48.736;9.218;2023-05-02T01:16:47;7829.53;;;8.66;100.00
29385;BME280;16367;48.736;9.218;2023-05-02T01:18:51;12688.22;;;8.65;100.00
29385;BME280;16367;48.736;9.218;2023-05-02T01:20:57;17228.75;;;8.65;100.00
29385;BME280;16367;48.736;9.218;2023-05-02T01:23:05;20478.25;;;8.72;100.00
29385;BME280;16367;48.736;9.218;2023-05-02T01:25:18;21451.38;;;8.69;100.00
29385;BME280;16367;48.736;9.218;2023-05-02T01:27:29;23078.16;;;8.73;100.00
29385;BME280;16367;48.736;9.218;2023-05-02T01:29:36;22102.91;;;8.73;100.00
29385;BME280;16367;48.736;9.218;2023-05-02T01:31:43;21779.00;;;8.75;100.00
29385;BME280;16367;48.736;9.218;2023-05-02T01:33:47;22753.13;;;8.73;100.00
29385;BME280;16367;48.736;9.218;2023-05-02T01:35:51;24379.25;;;8.75;100.00
29385;BME280;16367;48.736;9.218;2023-05-02T01:37:56;24705.81;;;8.78;100.00
29385;BME280;16367;48.736;9.218;2023-05-02T01:39:59;23404.31;;;8.76;100.00
29385;BME280;16367;48.736;9.218;2023-05-02T01:42:04;22430.25;;;8.78;100.00
29385;BME280;16367;48.736;9.218;2023-05-02T01:44:08;22750.72;;;8.68;100.00
29385;BME280;16367;48.736;9.218;2023-05-02T01:46:13;25678.66;;;8.72;100.00
29385;BME280;16367;48.736;9.218;2023-05-02T01:48:17;24379.72;;;8.76;100.00
29385;BME280;16367;48.736;9.218;2023-05-02T01:50:23;22099.72;;;8.65;100.00
29385;BME280;16367;48.736;9.218;2023-05-02T01:52:27;24699.72;;;8.65;100.00
29385;BME280;16367;48.736;9.218;2023-05-02T01:54:32;22099.28;;;8.64;100.00
29385;BME280;16367;48.736;9.218;2023-05-02T01:56:37;22424.44;;;8.65;100.00
29385;BME280;16367;48.736;9.218;2023-05-02T01:58:41;21450.34;;;8.66;100.00
29385;BME280;16367;48.736;9.218;2023-05-02T02:00:45;22746.34;;;8.58;100.00
29385;BME280;16367;48.736;9.218;2023-05-02T02:02:50;26647.03;;;8.57;100.00
29385;BME280;16367;48.736;9.218;2023-05-02T02:04:55;27946.69;;;8.54;100.00
29385;BME280;16367;48.736;9.218;2023-05-02T02:07:01;26646.28;;;8.55;100.00
29385;BME280;16367;48.736;9.218;2023-05-02T02:09:05;25670.16;;;8.54;100.00
29385;BME280;16367;48.736;9.218;2023-05-02T02:11:12;28273.13;;;8.56;100.00
29385;BME280;16367;48.736;9.218;2023-05-02T02:13:25;28595.06;;;8.49;100.00
29385;BME280;16367;48.736;9.218;2023-05-02T02:15:31;28596.94;;;8.53;100.00
29385;BME280;16367;48.736;9.218;2023-05-02T02:17:38;27945.94;;;8.52;100.00
29385;BME280;16367;48.736;9.218;2023-05-02T02:19:44;26642.53;;;8.48;100.00
29385;BME280;16367;48.736;9.218;2023-05-02T02:21:48;27289.94;;;8.42;100.00
29385;BME280;16367;48.736;9.218;2023-05-02T02:23:54;27937.31;;;8.36;100.00
29385;BME280;16367;48.736;9.218;2023-05-02T02:26:00;31516.72;;;8.36;100.00
29385;BME280;16367;48.736;9.218;2023-05-02T02:28:03;35749.84;;;8.34;100.00
29385;BME280;16367;48.736;9.218;2023-05-02T02:30:08;38677.31;;;8.24;100.00
29385;BME280;16367;48.736;9.218;2023-05-02T02:32:10;42265.50;;;8.23;100.00
29385;BME280;16367;48.736;9.218;2023-05-02T02:34:13;43900.09;;;8.27;100.00
29385;BME280;16367;48.736;9.218;2023-05-02T02:36:22;44879.81;;;8.27;100.00
29385;BME280;16367;48.736;9.218;2023-05-02T02:38:31;45533.09;;;8.27;100.00
29385;BME280;16367;48.736;9.218;2023-05-02T02:40:43;46844.13;;;8.32;100.00
29385;BME280;16367;48.736;9.218;2023-05-02T02:42:51;43903.63;;;8.31;100.00
29385;BME280;16367;48.736;9.218;2023-05-02T02:45:02;41944.03;;;8.30;100.00
29385;BME280;16367;48.736;9.218;2023-05-02T02:47:10;38028.31;;;8.29;100.00
29385;BME280;16367;48.736;9.218;2023-05-02T02:49:23;33790.03;;;8.25;100.00
29385;BME280;16367;48.736;9.218;2023-05-02T02:51:34;35742.03;;;8.21;100.00
29385;BME280;16367;48.736;9.218;2023-05-02T02:53:46;37699.53;;;8.24;100.00
29385;BME280;16367;48.736;9.218;2023-05-02T02:55:55;37698.84;;;8.23;100.00
29385;BME280;16367;48.736;9.218;2023-05-02T02:58:03;39324.56;;;8.17;100.00
29385;BME280;16367;48.736;9.218;2023-05-02T03:00:12;40304.44;;;8.19;100.00
29385;BME280;16367;48.736;9.218;2023-05-02T03:02:18;40628.81;;;8.16;100.00
29385;BME280;16367;48.736;9.218;2023-05-02T03:04:25;41931.59;;;8.13;100.00
29385;BME280;16367;48.736;9.218;2023-05-02T03:06:30;42257.91;;;8.13;100.00
29385;BME280;16367;48.736;9.218;2023-05-02T03:08:38;38346.03;;;8.16;100.00
29385;BME280;16367;48.736;9.218;2023-05-02T03:10:41;41281.66;;;8.17;100.00
29385;BME280;16367;48.736;9.218;2023-05-02T03:12:44;42589.59;;;8.20;100.00
29385;BME280;16367;48.736;9.218;2023-05-02T03:14:47;43244.75;;;8.23;100.00
29385;BME280;16367;48.736;9.218;2023-05-02T03:16:49;43575.53;;;8.29;100.00
29385;BME280;16367;48.736;9.218;2023-05-02T03:18:52;40642.00;;;8.35;100.00
29385;BME280;16367;48.736;9.218;2023-05-02T03:20:55;38034.53;;;8.38;100.00
29385;BME280;16367;48.736;9.218;2023-05-02T03:22:59;33801.19;;;8.44;100.00
29385;BME280;16367;48.736;9.218;2023-05-02T03:25:02;33150.28;;;8.45;100.00
29385;BME280;16367;48.736;9.218;2023-05-02T03:27:05;32170.53;;;8.40;100.00
29385;BME280;16367;48.736;9.218;2023-05-02T03:29:08;33801.19;;;8.44;100.00
29385;BME280;16367;48.736;9.218;2023-05-02T03:31:11;31201.84;;;8.54;100.00
29385;BME280;16367;48.736;9.218;2023-05-02T03:33:14;29249.41;;;8.56;100.00
29385;BME280;16367;48.736;9.218;2023-05-02T03:35:17;28596.94;;;8.53;100.00
29385;BME280;16367;48.736;9.218;2023-05-02T03:37:19;29255.38;;;8.67;100.00
29385;BME280;16367;48.736;9.218;2023-05-02T03:39:23;25026.31;;;8.68;100.00
29385;BME280;16367;48.736;9.218;2023-05-02T03:41:26;18857.06;;;8.79;100.00
29385;BME280;16367;48.736;9.218;2023-05-02T03:43:29;14963.22;;;8.82;100.00
29385;BME280;16367;48.736;9.218;2023-05-02T03:45:33;8804.72;;;8.85;100.00
29385;BME280;16367;48.736;9.218;2023-05-02T03:47:36;10101.50;;;8.89;100.00
29385;BME280;16367;48.736;9.218;2023-05-02T03:49:39;9780.50;;;9.02;100.00
29385;BME280;16367;48.736;9.218;2023-05-02T03:51:42;9132.38;;;9.02;100.00
29385;BME280;16367;48.736;9.218;2023-05-02T03:53:45;9456.88;;;9.05;100.00
29385;BME280;16367;48.736;9.218;2023-05-02T03:55:49;12375.56;;;9.08;100.00
29385;BME280;16367;48.736;9.218;2023-05-02T03:57:52;13673.69;;;9.10;100.00
29385;BME280;16367;48.736;9.218;2023-05-02T03:59:55;16595.06;;;9.11;100.00
29385;BME280;16367;48.736;9.218;2023-05-02T04:01:58;11728.22;;;9.13;100.00
29385;BME280;16367;48.736;9.218;2023-05-02T04:04:01;8488.22;;;9.22;100.00
29385;BME280;16367;48.736;9.218;2023-05-02T04:06:03;1042.47;;;9.33;100.00
29385;BME280;16367;48.736;9.218;2023-05-02T04:08:07;-10909.16;;;9.33;100.00
29385;BME280;16367;48.736;9.218;2023-05-02T04:10:10;-9295.97;;;9.30;100.00
29385;BME280;16367;48.736;9.218;2023-05-02T04:12:19;-18676.63;;;9.32;100.00
29385;BME280;16367;48.736;9.218;2023-05-02T04:14:22;-21879.19;;;9.34;100.00
29385;BME280;16367;48.736;9.218;2023-05-02T04:16:24;-23466.44;;;9.43;100.00
29385;BME280;16367;48.736;9.218;2023-05-02T04:18:27;-23465.31;;;9.39;100.00
29385;BME280;16367;48.736;9.218;2023-05-02T04:20:30;-23465.63;;;9.40;100.00
29385;BME280;16367;48.736;9.218;2023-05-02T04:22:33;-23468.31;;;9.49;100.00
29385;BME280;16367;48.736;9.218;2023-05-02T04:24:36;-23469.44;;;9.52;100.00
29385;BME280;16367;48.736;9.218;2023-05-02T04:26:39;-23467.22;;;9.45;100.00
29385;BME280;16367;48.736;9.218;2023-05-02T04:28:43;-23467.84;;;9.47;100.00
29385;BME280;16367;48.736;9.218;2023-05-02T04:30:46;-23466.25;;;9.42;100.00
29385;BME280;16367;48.736;9.218;2023-05-02T04:32:49;-23467.22;;;9.45;100.00
29385;BME280;16367;48.736;9.218;2023-05-02T04:34:52;-23467.06;;;9.45;100.00
29385;BME280;16367;48.736;9.218;2023-05-02T04:36:55;-23468.63;;;9.50;100.00
29385;BME280;16367;48.736;9.218;2023-05-02T04:38:58;-23468.81;;;9.50;100.00
29385;BME280;16367;48.736;9.218;2023-05-02T04:41:00;-23468.81;;;9.50;100.00
29385;BME280;16367;48.736;9.218;2023-05-02T04:43:09;-23468.81;;;9.50;100.00
29385;BME280;16367;48.736;9.218;2023-05-02T04:45:13;-23466.25;;;9.42;100.00
29385;BME280;16367;48.736;9.218;2023-05-02T04:47:16;-23468.81;;;9.50;100.00
29385;BME280;16367;48.736;9.218;2023-05-02T04:49:28;-23472.28;;;9.61;100.00
29385;BME280;16367;48.736;9.218;2023-05-02T04:51:32;-23463.09;;;9.32;100.00
29385;BME280;16367;48.736;9.218;2023-05-02T04:53:36;-23462.47;;;9.30;100.00
29385;BME280;16367;48.736;9.218;2023-05-02T04:55:38;-23462.78;;;9.31;100.00
29385;BME280;16367;48.736;9.218;2023-05-02T04:57:41;-23460.25;;;9.23;100.00
29385;BME280;16367;48.736;9.218;2023-05-02T04:59:44;-23461.50;;;9.27;100.00
29385;BME280;16367;48.736;9.218;2023-05-02T05:01:48;-23464.38;;;9.36;100.00
29385;BME280;16367;48.736;9.218;2023-05-02T05:03:51;-23471.34;;;9.58;100.00
29385;BME280;16367;48.736;9.218;2023-05-02T05:05:54;-23465.31;;;9.39;100.00
29385;BME280;16367;48.736;9.218;2023-05-02T05:07:56;-23467.38;;;9.46;100.00
29385;BME280;16367;48.736;9.218;2023-05-02T05:09:59;-23470.38;;;9.55;100.00
29385;BME280;16367;48.736;9.218;2023-05-02T05:12:03;-23468.16;;;9.48;100.00
29385;BME280;16367;48.736;9.218;2023-05-02T05:14:05;-23471.66;;;9.59;100.00
29385;BME280;16367;48.736;9.218;2023-05-02T05:16:08;-23469.59;;;9.53;100.00
29385;BME280;16367;48.736;9.218;2023-05-02T05:18:13;-23471.66;;;9.59;100.00
29385;BME280;16367;48.736;9.218;2023-05-02T05:20:16;-23471.66;;;9.59;100.00
29385;BME280;16367;48.736;9.218;2023-05-02T05:22:18;-23471.66;;;9.59;100.00
29385;BME280;16367;48.736;9.218;2023-05-02T05:24:22;-23469.28;;;9.52;100.00
29385;BME280;16367;48.736;9.218;2023-05-02T05:26:24;-23471.34;;;9.58;100.00
29385;BME280;16367;48.736;9.218;2023-05-02T05:28:27;-23475.31;;;9.71;100.00
29385;BME280;16367;48.736;9.218;2023-05-02T05:30:30;-23474.03;;;9.67;100.00
29385;BME280;16367;48.736;9.218;2023-05-02T05:32:33;-23477.84;;;9.79;100.00
29385;BME280;16367;48.736;9.218;2023-05-02T05:34:37;-23483.06;;;9.96;100.00
29385;BME280;16367;48.736;9.218;2023-05-02T05:36:40;-23480.53;;;9.88;100.00
29385;BME280;16367;48.736;9.218;2023-05-02T05:38:43;-23484.50;;;10.00;100.00
29385;BME280;16367;48.736;9.218;2023-05-02T05:40:48;-23482.59;;;9.94;100.00
29385;BME280;16367;48.736;9.218;2023-05-02T05:42:51;-23488.31;;;10.12;100.00
29385;BME280;16367;48.736;9.218;2023-05-02T05:44:54;-23493.38;;;10.28;100.00
29385;BME280;16367;48.736;9.218;2023-05-02T05:46:57;-23500.19;;;10.50;100.00
29385;BME280;16367;48.736;9.218;2023-05-02T05:48:59;-23496.38;;;10.38;100.00
29385;BME280;16367;48.736;9.218;2023-05-02T05:51:04;-23502.09;;;10.56;100.00
29385;BME280;16367;48.736;9.218;2023-05-02T05:53:07;-23504.31;;;10.63;100.00
29385;BME280;16367;48.736;9.218;2023-05-02T05:55:10;-23505.91;;;10.68;100.00
29385;BME280;16367;48.736;9.218;2023-05-02T05:57:13;-23504.31;;;10.63;100.00
29385;BME280;16367;48.736;9.218;2023-05-02T05:59:16;-23507.94;;;10.75;100.00
29385;BME280;16367;48.736;9.218;2023-05-02T06:01:18;-23505.91;;;10.68;100.00
29385;BME280;16367;48.736;9.218;2023-05-02T06:03:21;-23507.78;;;10.74;100.00
29385;BME280;16367;48.736;9.218;2023-05-02T06:05:24;-23517.63;;;11.05;100.00
29385;BME280;16367;48.736;9.218;2023-05-02T06:07:28;-23512.22;;;10.88;100.00
29385;BME280;16367;48.736;9.218;2023-05-02T06:09:31;-23510.31;;;10.82;100.00
29385;BME280;16367;48.736;9.218;2023-05-02T06:11:35;-23504.47;;;10.64;100.00
29385;BME280;16367;48.736;9.218;2023-05-02T06:13:38;-23507.31;;;10.73;100.00
29385;BME280;16367;48.736;9.218;2023-05-02T06:15:41;-23504.63;;;10.64;100.00
29385;BME280;16367;48.736;9.218;2023-05-02T06:17:44;-23502.09;;;10.56;100.00
29385;BME280;16367;48.736;9.218;2023-05-02T06:19:47;-23505.56;;;10.67;100.00
29385;BME280;16367;48.736;9.218;2023-05-02T06:21:50;-23505.91;;;10.68;100.00
29385;BME280;16367;48.736;9.218;2023-05-02T06:23:54;-23511.44;;;10.86;100.00
29385;BME280;16367;48.736;9.218;2023-05-02T06:25:58;-23501.63;;;10.55;100.00
29385;BME280;16367;48.736;9.218;2023-05-02T06:28:01;-23508.09;;;10.75;100.00
29385;BME280;16367;48.736;9.218;2023-05-02T06:30:05;-23505.56;;;10.67;100.00
29385;BME280;16367;48.736;9.218;2023-05-02T06:32:08;-23506.22;;;10.69;100.00
29385;BME280;16367;48.736;9.218;2023-05-02T06:34:11;-23504.63;;;10.64;100.00
29385;BME280;16367;48.736;9.218;2023-05-02T06:36:13;-23502.72;;;10.58;100.00
29385;BME280;16367;48.736;9.218;2023-05-02T06:38:16;-23508.09;;;10.75;100.00
29385;BME280;16367;48.736;9.218;2023-05-02T06:40:20;-23507.16;;;10.72;100.00
29385;BME280;16367;48.736;9.218;2023-05-02T06:42:23;-23502.72;;;10.58;100.00
29385;BME280;16367;48.736;9.218;2023-05-02T06:44:26;-23515.06;;;10.97;100.00
29385;BME280;16367;48.736;9.218;2023-05-02T06:46:29;-23518.88;;;11.09;100.00
29385;BME280;16367;48.736;9.218;2023-05-02T06:48:34;-23511.28;;;10.85;100.00
29385;BME280;16367;48.736;9.218;2023-05-02T06:50:37;-23524.09;;;11.26;100.00
29385;BME280;16367;48.736;9.218;2023-05-02T06:52:40;-23521.56;;;11.18;100.00
29385;BME280;16367;48.736;9.218;2023-05-02T06:54:42;-23514.44;;;10.95;100.00
29385;BME280;16367;48.736;9.218;2023-05-02T06:56:46;-23520.47;;;11.14;100.00
29385;BME280;16367;48.736;9.218;2023-05-02T06:58:49;-23527.75;;;11.38;100.00
29385;BME280;16367;48.736;9.218;2023-05-02T07:00:52;-23527.13;;;11.36;100.00
29385;BME280;16367;48.736;9.218;2023-05-02T07:02:55;-23516.34;;;11.01;100.00
29385;BME280;16367;48.736;9.218;2023-05-02T07:04:57;-23522.38;;;11.20;100.00
29385;BME280;16367;48.736;9.218;2023-05-02T07:07:00;-23517.28;;;11.04;100.00
29385;BME280;16367;48.736;9.218;2023-05-02T07:09:04;-23518.25;;;11.07;100.00
29385;BME280;16367;48.736;9.218;2023-05-02T07:11:07;-23526.00;;;11.32;100.00
29385;BME280;16367;48.736;9.218;2023-05-02T07:13:11;-23525.53;;;11.31;100.00
29385;BME280;16367;48.736;9.218;2023-05-02T07:15:13;-23530.59;;;11.47;100.00
29385;BME280;16367;48.736;9.218;2023-05-02T07:17:17;-23526.16;;;11.33;100.00
29385;BME280;16367;48.736;9.218;2023-05-02T07:19:19;-23531.53;;;11.50;100.00
29385;BME280;16367;48.736;9.218;2023-05-02T07:21:22;-23523.16;;;11.23;100.00
29385;BME280;16367;48.736;9.218;2023-05-02T07:23:25;-23527.75;;;11.38;100.00
29385;BME280;16367;48.736;9.218;2023-05-02T07:25:28;-23537.25;;;11.68;100.00
29385;BME280;16367;48.736;9.218;2023-05-02T07:27:31;-23530.28;;;11.46;100.00
29385;BME280;16367;48.736;9.218;2023-05-02T07:29:35;-23529.00;;;11.42;100.00
29385;BME280;16367;48.736;9.218;2023-05-02T07:31:37;-23522.53;;;11.21;100.00
29385;BME280;16367;48.736;9.218;2023-05-02T07:33:40;-23522.53;;;11.21;100.00
29385;BME280;16367;48.736;9.218;2023-05-02T07:35:43;-23517.28;;;11.04;100.00
29385;BME280;16367;48.736;9.218;2023-05-02T07:37:46;-23526.78;;;11.35;100.00
29385;BME280;16367;48.736;9.218;2023-05-02T07:39:49;-23528.84;;;11.41;100.00
29385;BME280;16367;48.736;9.218;2023-05-02T07:41:52;-23521.25;;;11.17;100.00
29385;BME280;16367;48.736;9.218;2023-05-02T07:43:54;-23523.94;;;11.25;100.00
29385;BME280;16367;48.736;9.218;2023-05-02T07:46:02;-23529.97;;;11.45;100.00
29385;BME280;16367;48.736;9.218;2023-05-02T07:48:05;-23539.16;;;11.74;100.00
29385;BME280;16367;48.736;9.218;2023-05-02T07:50:09;-23537.25;;;11.68;100.00
29385;BME280;16367;48.736;9.218;2023-05-02T07:52:12;-23545.63;;;11.94;100.00
29385;BME280;16367;48.736;9.218;2023-05-02T07:54:15;-23540.25;;;11.77;100.00
29385;BME280;16367;48.736;9.218;2023-05-02T07:56:18;-23544.69;;;11.91;100.00
29385;BME280;16367;48.736;9.218;2023-05-02T07:58:21;-23539.16;;;11.74;100.00
29385;BME280;16367;48.736;9.218;2023-05-02T08:00:24;-23547.06;;;11.99;100.00
29385;BME280;16367;48.736;9.218;2023-05-02T08:02:28;-23543.88;;;11.89;100.00
29385;BME280;16367;48.736;9.218;2023-05-02T08:04:31;-23555.91;;;12.27;100.00
29385;BME280;16367;48.736;9.218;2023-05-02T08:06:34;-23544.06;;;11.89;100.00
29385;BME280;16367;48.736;9.218;2023-05-02T08:08:37;-23565.09;;;12.56;100.00
29385;BME280;16367;48.736;9.218;2023-05-02T08:10:40;-23536.13;;;11.64;100.00
29385;BME280;16367;48.736;9.218;2023-05-02T08:12:42;-23543.41;;;11.87;100.00
29385;BME280;16367;48.736;9.218;2023-05-02T08:14:45;-23546.09;;;11.96;100.00
29385;BME280;16367;48.736;9.218;2023-05-02T08:16:48;-23550.53;;;12.10;100.00
29385;BME280;16367;48.736;9.218;2023-05-02T08:18:52;-23547.06;;;11.99;100.00
29385;BME280;16367;48.736;9.218;2023-05-02T08:20:55;-23555.28;;;12.25;100.00
29385;BME280;16367;48.736;9.218;2023-05-02T08:22:59;-23547.53;;;12.01;100.00
29385;BME280;16367;48.736;9.218;2023-05-02T08:25:01;-23535.34;;;11.62;100.00
29385;BME280;16367;48.736;9.218;2023-05-02T08:27:04;-23551.16;;;12.12;100.00
29385;BME280;16367;48.736;9.218;2023-05-02T08:29:08;-23559.41;;;12.38;100.00
29385;BME280;16367;48.736;9.218;2023-05-02T08:31:12;-23552.44;;;12.16;100.00
29385;BME280;16367;48.736;9.218;2023-05-02T08:33:15;-23538.50;;;11.72;100.00
29385;BME280;16367;48.736;9.218;2023-05-02T08:35:19;-23528.38;;;11.40;100.00
29385;BME280;16367;48.736;9.218;2023-05-02T08:37:21;-23535.34;;;11.62;100.00
29385;BME280;16367;48.736;9.218;2023-05-02T08:39:24;-23555.44;;;12.26;100.00
29385;BME280;16367;48.736;9.218;2023-05-02T08:41:28;-23564.78;;;12.55;100.00
29385;BME280;16367;48.736;9.218;2023-05-02T08:43:32;-23571.56;;;12.77;100.00
29385;BME280;16367;48.736;9.218;2023-05-02T08:45:39;-23560.66;;;12.42;100.00
29385;BME280;16367;48.736;9.218;2023-05-02T08:47:43;-23569.84;;;12.71;100.00
29385;BME280;16367;48.736;9.218;2023-05-02T08:49:47;-23579.00;;;13.01;100.00
29385;BME280;16367;48.736;9.218;2023-05-02T08:51:53;-23565.09;;;12.56;100.00
29385;BME280;16367;48.736;9.218;2023-05-02T08:53:57;-23555.44;;;12.26;100.00
29385;BME280;16367;48.736;9.218;2023-05-02T08:56:00;-23559.41;;;12.38;100.00
29385;BME280;16367;48.736;9.218;2023-05-02T08:58:03;-23570.47;;;12.73;100.00
29385;BME280;16367;48.736;9.218;2023-05-02T09:00:07;-23582.78;;;13.13;100.00
29385;BME280;16367;48.736;9.218;2023-05-02T09:02:14;-23561.59;;;12.45;100.00
29385;BME280;16367;48.736;9.218;2023-05-02T09:04:22;-23572.03;;;12.79;100.00
29385;BME280;16367;48.736;9.218;2023-05-02T09:06:25;-23578.22;;;12.98;99.79
29385;BME280;16367;48.736;9.218;2023-05-02T09:08:31;-23588.31;;;13.30;100.00
29385;BME280;16367;48.736;9.218;2023-05-02T09:10:34;-23585.97;;;13.23;96.97
29385;BME280;16367;48.736;9.218;2023-05-02T09:12:38;-23575.22;;;12.89;97.86
29385;BME280;16367;48.736;9.218;2023-05-02T09:14:42;-23577.25;;;12.95;98.05
29385;BME280;16367;48.736;9.218;2023-05-02T09:16:46;-23567.31;;;12.63;98.83
29385;BME280;16367;48.736;9.218;2023-05-02T09:18:50;-23579.00;;;13.01;100.00
29385;BME280;16367;48.736;9.218;2023-05-02T09:20:53;-23586.59;;;13.25;95.35
29385;BME280;16367;48.736;9.218;2023-05-02T09:22:56;-23604.91;;;13.83;94.91
29385;BME280;16367;48.736;9.218;2023-05-02T09:25:00;-23641.69;;;15.01;89.40
29385;BME280;16367;48.736;9.218;2023-05-02T09:27:05;-23644.53;;;15.10;82.80
29385;BME280;16367;48.736;9.218;2023-05-02T09:29:07;-23676.84;;;16.13;79.69
29385;BME280;16367;48.736;9.218;2023-05-02T09:31:12;-23638.88;;;14.91;83.14
29385;BME280;16367;48.736;9.218;2023-05-02T09:33:25;-23654.00;;;15.40;84.19
29385;BME280;16367;48.736;9.218;2023-05-02T09:35:28;-23665.69;;;15.77;81.85
29385;BME280;16367;48.736;9.218;2023-05-02T09:37:35;-23644.53;;;15.10;84.27
29385;BME280;16367;48.736;9.218;2023-05-02T09:39:37;-23660.16;;;15.59;83.36
29385;BME280;16367;48.736;9.218;2023-05-02T09:41:43;-23675.59;;;16.09;80.46
29385;BME280;16367;48.736;9.218;2023-05-02T09:43:54;-23646.75;;;15.17;85.94
29385;BME280;16367;48.736;9.218;2023-05-02T09:46:00;-23625.75;;;14.50;86.98
29385;BME280;16367;48.736;9.218;2023-05-02T09:48:04;-23619.44;;;14.30;87.45
29385;BME280;16367;48.736;9.218;2023-05-02T09:50:08;-23629.25;;;14.61;87.72
29385;BME280;16367;48.736;9.218;2023-05-02T09:52:11;-23618.19;;;14.26;90.06
29385;BME280;16367;48.736;9.218;2023-05-02T09:54:17;-23675.28;;;16.08;79.43
29385;BME280;16367;48.736;9.218;2023-05-02T09:56:54;-23642.16;;;15.02;81.31
29385;BME280;16367;48.736;9.218;2023-05-02T09:59:11;-23678.44;;;16.18;76.26
29385;BME280;16367;48.736;9.218;2023-05-02T10:01:15;-23685.22;;;16.39;76.04
29385;BME280;16367;48.736;9.218;2023-05-02T10:03:18;-23711.81;;;17.25;75.17
29385;BME280;16367;48.736;9.218;2023-05-02T10:05:21;-23681.59;;;16.28;72.42
29385;BME280;16367;48.736;9.218;2023-05-02T10:07:25;-23677.50;;;16.15;73.88
29385;BME280;16367;48.736;9.218;2023-05-02T10:09:28;-23706.78;;;17.08;72.50
29385;BME280;16367;48.736;9.218;2023-05-02T10:11:33;-23704.13;;;17.00;70.98
29385;BME280;16367;48.736;9.218;2023-05-02T10:13:39;-23754.16;;;18.60;62.23
29385;BME280;16367;48.736;9.218;2023-05-02T10:15:43;-23717.19;;;17.42;69.55
29385;BME280;16367;48.736;9.218;2023-05-02T10:17:47;-23737.00;;;18.05;68.85
29385;BME280;16367;48.736;9.218;2023-05-02T10:19:56;-23714.97;;;17.35;66.76
29385;BME280;16367;48.736;9.218;2023-05-02T10:21:59;-23678.59;;;16.18;73.01
29385;BME280;16367;48.736;9.218;2023-05-02T10:24:04;-23673.41;;;16.02;74.95
29385;BME280;16367;48.736;9.218;2023-05-02T10:26:07;-23702.38;;;16.94;75.90
29385;BME280;16367;48.736;9.218;2023-05-02T10:28:10;-23689.31;;;16.53;76.04
29385;BME280;16367;48.736;9.218;2023-05-02T10:30:15;-23689.78;;;16.54;74.00
29385;BME280;16367;48.736;9.218;2023-05-02T10:32:19;-23666.16;;;15.79;74.86
29385;BME280;16367;48.736;9.218;2023-05-02T10:34:24;-23687.25;;;16.46;74.50
29385;BME280;16367;48.736;9.218;2023-05-02T10:36:28;-23724.09;;;17.64;71.62
29385;BME280;16367;48.736;9.218;2023-05-02T10:38:34;-23694.34;;;16.69;73.48
29385;BME280;16367;48.736;9.218;2023-05-02T10:40:39;-23693.88;;;16.67;73.74
29385;BME280;16367;48.736;9.218;2023-05-02T10:42:44;-23656.06;;;15.46;77.14
29385;BME280;16367;48.736;9.218;2023-05-02T10:44:48;-23667.41;;;15.83;75.75
29385;BME280;16367;48.736;9.218;2023-05-02T10:46:53;-23682.06;;;16.29;71.78
29385;BME280;16367;48.736;9.218;2023-05-02T10:48:59;-23695.78;;;16.73;72.33
29385;BME280;16367;48.736;9.218;2023-05-02T10:51:02;-23698.13;;;16.81;69.45